sensor_id;sensor_type;location;lat;lon;timestamp;temperature;humidity
54540;SHT30;40438;52.992;18.604;2024-01-15T00:02:19;1.50;91.84
54540;SHT30;40438;52.992;18.604;2024-01-15T00:04:45;1.52;91.88
54540;SHT30;40438;52.992;18.604;2024-01-15T00:07:10;1.52;91.74
54540;SHT30;40438;52.992;18.604;2024-01-15T00:09:36;1.54;91.84
54540;SHT30;40438;52.992;18.604;2024-01-15T00:12:03;1.50;91.66
54540;SHT30;40438;52.992;18.604;2024-01-15T00:14:30;1.54;91.87
54540;SHT30;40438;52.992;18.604;2024-01-15T00:16:56;1.47;92.14
54540;SHT30;40438;52.992;18.604;2024-01-15T00:19:21;1.44;92.29
54540;SHT30;40438;52.992;18.604;2024-01-15T00:21:47;1.50;92.20
54540;SHT30;40438;52.992;18.604;2024-01-15T00:24:13;1.48;92.51
54540;SHT30;40438;52.992;18.604;2024-01-15T00:26:39;1.43;92.61
54540;SHT30;40438;52.992;18.604;2024-01-15T00:29:06;1.38;92.69
54540;SHT30;40438;52.992;18.604;2024-01-15T00:31:34;1.38;92.95
54540;SHT30;40438;52.992;18.604;2024-01-15T00:33:59;1.34;93.09
54540;SHT30;40438;52.992;18.604;2024-01-15T00:36:25;1.27;93.37
54540;SHT30;40438;52.992;18.604;2024-01-15T00:38:51;1.30;93.47
54540;SHT30;40438;52.992;18.604;2024-01-15T00:41:17;1.28;93.20
54540;SHT30;40438;52.992;18.604;2024-01-15T00:43:43;1.26;93.36
54540;SHT30;40438;52.992;18.604;2024-01-15T00:46:09;1.26;93.35
54540;SHT30;40438;52.992;18.604;2024-01-15T00:48:36;1.24;93.44
54540;SHT30;40438;52.992;18.604;2024-01-15T00:51:03;1.31;93.51
54540;SHT30;40438;52.992;18.604;2024-01-15T00:53:29;1.33;93.11
54540;SHT30;40438;52.992;18.604;2024-01-15T00:55:55;1.31;93.21
54540;SHT30;40438;52.992;18.604;2024-01-15T00:58:20;1.34;93.21
54540;SHT30;40438;52.992;18.604;2024-01-15T01:00:46;1.34;92.83
54540;SHT30;40438;52.992;18.604;2024-01-15T01:03:12;1.31;93.09
54540;SHT30;40438;52.992;18.604;2024-01-15T01:05:39;1.31;93.12
54540;SHT30;40438;52.992;18.604;2024-01-15T01:08:05;1.41;92.61
54540;SHT30;40438;52.992;18.604;2024-01-15T01:10:31;1.43;92.75
54540;SHT30;40438;52.992;18.604;2024-01-15T01:12:57;1.46;92.39
54540;SHT30;40438;52.992;18.604;2024-01-15T01:15:23;1.46;92.43
54540;SHT30;40438;52.992;18.604;2024-01-15T01:17:48;1.46;92.28
54540;SHT30;40438;52.992;18.604;2024-01-15T01:20:15;1.44;92.28
54540;SHT30;40438;52.992;18.604;2024-01-15T01:22:42;1.41;92.61
54540;SHT30;40438;52.992;18.604;2024-01-15T01:25:08;1.44;92.26
54540;SHT30;40438;52.992;18.604;2024-01-15T01:27:34;1.41;92.65
54540;SHT30;40438;52.992;18.604;2024-01-15T01:30:00;1.44;92.47
54540;SHT30;40438;52.992;18.604;2024-01-15T01:32:26;1.46;92.53
54540;SHT30;40438;52.992;18.604;2024-01-15T01:34:52;1.40;92.76
54540;SHT30;40438;52.992;18.604;2024-01-15T01:37:18;1.47;92.44
54540;SHT30;40438;52.992;18.604;2024-01-15T01:39:45;1.47;92.43
54540;SHT30;40438;52.992;18.604;2024-01-15T01:42:11;1.41;92.68
54540;SHT30;40438;52.992;18.604;2024-01-15T01:44:37;1.40;92.72
54540;SHT30;40438;52.992;18.604;2024-01-15T01:47:04;1.41;92.88
54540;SHT30;40438;52.992;18.604;2024-01-15T01:49:30;1.46;92.69
54540;SHT30;40438;52.992;18.604;2024-01-15T01:51:57;1.43;92.77
54540;SHT30;40438;52.992;18.604;2024-01-15T01:54:23;1.40;92.44
54540;SHT30;40438;52.992;18.604;2024-01-15T01:56:51;1.43;92.42
54540;SHT30;40438;52.992;18.604;2024-01-15T01:59:17;1.43;92.66
54540;SHT30;40438;52.992;18.604;2024-01-15T02:01:44;1.46;92.38
54540;SHT30;40438;52.992;18.604;2024-01-15T02:04:10;1.50;92.13
54540;SHT30;40438;52.992;18.604;2024-01-15T02:06:36;1.48;92.25
54540;SHT30;40438;52.992;18.604;2024-01-15T02:09:02;1.46;92.15
54540;SHT30;40438;52.992;18.604;2024-01-15T02:11:28;1.48;91.96
54540;SHT30;40438;52.992;18.604;2024-01-15T02:13:56;1.48;91.99
54540;SHT30;40438;52.992;18.604;2024-01-15T02:16:21;1.50;92.02
54540;SHT30;40438;52.992;18.604;2024-01-15T02:18:47;1.55;91.88
54540;SHT30;40438;52.992;18.604;2024-01-15T02:21:13;1.54;91.72
54540;SHT30;40438;52.992;18.604;2024-01-15T02:23:40;1.54;92.02
54540;SHT30;40438;52.992;18.604;2024-01-15T02:26:06;1.50;91.94
54540;SHT30;40438;52.992;18.604;2024-01-15T02:28:33;1.51;91.85
54540;SHT30;40438;52.992;18.604;2024-01-15T02:30:59;1.50;91.58
54540;SHT30;40438;52.992;18.604;2024-01-15T02:33:25;1.51;91.47
54540;SHT30;40438;52.992;18.604;2024-01-15T02:35:51;1.51;91.51
54540;SHT30;40438;52.992;18.604;2024-01-15T02:38:17;1.52;91.20
54540;SHT30;40438;52.992;18.604;2024-01-15T02:40:44;1.50;91.33
54540;SHT30;40438;52.992;18.604;2024-01-15T02:43:10;1.51;91.41
54540;SHT30;40438;52.992;18.604;2024-01-15T02:45:36;1.52;91.40
54540;SHT30;40438;52.992;18.604;2024-01-15T02:48:02;1.50;91.05
54540;SHT30;40438;52.992;18.604;2024-01-15T02:50:28;1.51;91.05
54540;SHT30;40438;52.992;18.604;2024-01-15T02:52:54;1.52;90.93
54540;SHT30;40438;52.992;18.604;2024-01-15T02:55:20;1.50;90.81
54540;SHT30;40438;52.992;18.604;2024-01-15T02:57:47;1.46;90.89
54540;SHT30;40438;52.992;18.604;2024-01-15T03:00:13;1.48;91.02
54540;SHT30;40438;52.992;18.604;2024-01-15T03:02:40;1.47;90.87
54540;SHT30;40438;52.992;18.604;2024-01-15T03:05:06;1.50;90.77
54540;SHT30;40438;52.992;18.604;2024-01-15T03:07:32;1.48;90.98
54540;SHT30;40438;52.992;18.604;2024-01-15T03:09:59;1.47;91.03
54540;SHT30;40438;52.992;18.604;2024-01-15T03:12:25;1.52;90.91
54540;SHT30;40438;52.992;18.604;2024-01-15T03:14:52;1.46;91.42
54540;SHT30;40438;52.992;18.604;2024-01-15T03:17:18;1.41;91.64
54540;SHT30;40438;52.992;18.604;2024-01-15T03:19:43;1.37;92.12
54540;SHT30;40438;52.992;18.604;2024-01-15T03:22:09;1.33;92.38
54540;SHT30;40438;52.992;18.604;2024-01-15T03:24:35;1.28;92.48
54540;SHT30;40438;52.992;18.604;2024-01-15T03:27:01;1.40;91.85
54540;SHT30;40438;52.992;18.604;2024-01-15T03:29:27;1.36;92.09
54540;SHT30;40438;52.992;18.604;2024-01-15T03:31:54;1.36;92.31
54540;SHT30;40438;52.992;18.604;2024-01-15T03:34:20;1.40;92.13
54540;SHT30;40438;52.992;18.604;2024-01-15T03:36:46;1.36;91.97
54540;SHT30;40438;52.992;18.604;2024-01-15T03:39:11;1.37;91.61
54540;SHT30;40438;52.992;18.604;2024-01-15T03:41:37;1.41;91.34
54540;SHT30;40438;52.992;18.604;2024-01-15T03:44:03;1.34;91.58
54540;SHT30;40438;52.992;18.604;2024-01-15T03:46:29;1.38;91.49
54540;SHT30;40438;52.992;18.604;2024-01-15T03:48:56;1.36;91.33
54540;SHT30;40438;52.992;18.604;2024-01-15T03:51:22;1.40;91.28
54540;SHT30;40438;52.992;18.604;2024-01-15T03:53:48;1.38;91.18
54540;SHT30;40438;52.992;18.604;2024-01-15T03:56:14;1.37;91.00
54540;SHT30;40438;52.992;18.604;2024-01-15T03:58:40;1.38;91.00
54540;SHT30;40438;52.992;18.604;2024-01-15T04:01:08;1.37;91.17
54540;SHT30;40438;52.992;18.604;2024-01-15T04:03:34;1.34;91.59
54540;SHT30;40438;52.992;18.604;2024-01-15T04:06:01;1.34;91.79
54540;SHT30;40438;52.992;18.604;2024-01-15T04:08:27;1.23;92.21
54540;SHT30;40438;52.992;18.604;2024-01-15T04:10:53;1.31;91.96
54540;SHT30;40438;52.992;18.604;2024-01-15T04:13:18;1.23;92.56
54540;SHT30;40438;52.992;18.604;2024-01-15T04:15:44;1.24;92.43
54540;SHT30;40438;52.992;18.604;2024-01-15T04:18:10;1.22;92.63
54540;SHT30;40438;52.992;18.604;2024-01-15T04:20:36;1.20;93.07
54540;SHT30;40438;52.992;18.604;2024-01-15T04:23:03;1.15;93.02
54540;SHT30;40438;52.992;18.604;2024-01-15T04:25:29;1.11;93.27
54540;SHT30;40438;52.992;18.604;2024-01-15T04:27:55;1.11;93.22
54540;SHT30;40438;52.992;18.604;2024-01-15T04:30:20;1.06;93.74
54540;SHT30;40438;52.992;18.604;2024-01-15T04:32:46;1.04;93.84
54540;SHT30;40438;52.992;18.604;2024-01-15T04:35:12;0.96;93.96
54540;SHT30;40438;52.992;18.604;2024-01-15T04:37:39;1.03;93.62
54540;SHT30;40438;52.992;18.604;2024-01-15T04:40:07;1.00;93.87
54540;SHT30;40438;52.992;18.604;2024-01-15T04:42:33;1.04;93.82
54540;SHT30;40438;52.992;18.604;2024-01-15T04:44:59;1.01;93.75
54540;SHT30;40438;52.992;18.604;2024-01-15T04:47:24;0.93;94.04
54540;SHT30;40438;52.992;18.604;2024-01-15T04:49:50;0.92;94.20
54540;SHT30;40438;52.992;18.604;2024-01-15T04:52:16;0.97;94.03
54540;SHT30;40438;52.992;18.604;2024-01-15T04:54:42;0.97;94.10
54540;SHT30;40438;52.992;18.604;2024-01-15T04:57:09;0.93;94.26
54540;SHT30;40438;52.992;18.604;2024-01-15T04:59:35;0.89;94.31
54540;SHT30;40438;52.992;18.604;2024-01-15T05:02:00;0.93;94.38
54540;SHT30;40438;52.992;18.604;2024-01-15T05:04:26;1.01;94.13
54540;SHT30;40438;52.992;18.604;2024-01-15T05:06:53;0.99;94.02
54540;SHT30;40438;52.992;18.604;2024-01-15T05:09:19;0.96;94.27
54540;SHT30;40438;52.992;18.604;2024-01-15T05:11:44;0.89;94.46
54540;SHT30;40438;52.992;18.604;2024-01-15T05:14:12;1.03;94.19
54540;SHT30;40438;52.992;18.604;2024-01-15T05:16:39;1.01;94.21
54540;SHT30;40438;52.992;18.604;2024-01-15T05:19:06;1.06;94.30
54540;SHT30;40438;52.992;18.604;2024-01-15T05:21:32;1.01;94.09
54540;SHT30;40438;52.992;18.604;2024-01-15T05:23:58;1.00;94.19
54540;SHT30;40438;52.992;18.604;2024-01-15T05:26:24;0.99;94.43
54540;SHT30;40438;52.992;18.604;2024-01-15T05:28:49;1.04;94.34
54540;SHT30;40438;52.992;18.604;2024-01-15T05:31:16;1.03;94.11
54540;SHT30;40438;52.992;18.604;2024-01-15T05:33:42;1.03;94.25
54540;SHT30;40438;52.992;18.604;2024-01-15T05:36:08;1.04;93.89
54540;SHT30;40438;52.992;18.604;2024-01-15T05:38:34;1.01;93.58
54540;SHT30;40438;52.992;18.604;2024-01-15T05:41:00;1.03;93.19
54540;SHT30;40438;52.992;18.604;2024-01-15T05:43:25;1.07;92.44
54540;SHT30;40438;52.992;18.604;2024-01-15T05:45:51;1.11;92.13
54540;SHT30;40438;52.992;18.604;2024-01-15T05:48:18;1.15;92.25
54540;SHT30;40438;52.992;18.604;2024-01-15T05:50:44;1.09;91.81
54540;SHT30;40438;52.992;18.604;2024-01-15T05:53:10;1.11;91.46
54540;SHT30;40438;52.992;18.604;2024-01-15T05:55:36;1.22;90.97
54540;SHT30;40438;52.992;18.604;2024-01-15T05:58:02;1.19;90.88
54540;SHT30;40438;52.992;18.604;2024-01-15T06:00:28;1.19;91.13
54540;SHT30;40438;52.992;18.604;2024-01-15T06:02:53;1.04;91.08
54540;SHT30;40438;52.992;18.604;2024-01-15T06:05:21;1.06;91.16
54540;SHT30;40438;52.992;18.604;2024-01-15T06:07:46;1.13;91.07
54540;SHT30;40438;52.992;18.604;2024-01-15T06:10:12;1.09;91.29
54540;SHT30;40438;52.992;18.604;2024-01-15T06:12:38;1.00;91.61
54540;SHT30;40438;52.992;18.604;2024-01-15T06:15:04;1.09;91.12
54540;SHT30;40438;52.992;18.604;2024-01-15T06:17:30;1.07;90.88
54540;SHT30;40438;52.992;18.604;2024-01-15T06:19:56;1.11;90.52
54540;SHT30;40438;52.992;18.604;2024-01-15T06:22:23;1.09;91.10
54540;SHT30;40438;52.992;18.604;2024-01-15T06:24:49;1.10;90.61
54540;SHT30;40438;52.992;18.604;2024-01-15T06:27:15;1.17;90.05
54540;SHT30;40438;52.992;18.604;2024-01-15T06:29:45;1.06;89.98
54540;SHT30;40438;52.992;18.604;2024-01-15T06:32:11;1.11;89.73
54540;SHT30;40438;52.992;18.604;2024-01-15T06:34:36;1.16;90.10
54540;SHT30;40438;52.992;18.604;2024-01-15T06:37:02;1.01;90.19
54540;SHT30;40438;52.992;18.604;2024-01-15T06:39:29;0.97;90.60
54540;SHT30;40438;52.992;18.604;2024-01-15T06:41:55;1.06;89.97
54540;SHT30;40438;52.992;18.604;2024-01-15T06:44:21;1.10;89.70
54540;SHT30;40438;52.992;18.604;2024-01-15T06:46:47;1.13;89.32
54540;SHT30;40438;52.992;18.604;2024-01-15T06:49:13;1.07;89.83
54540;SHT30;40438;52.992;18.604;2024-01-15T06:51:39;0.99;89.81
54540;SHT30;40438;52.992;18.604;2024-01-15T06:54:05;1.04;89.50
54540;SHT30;40438;52.992;18.604;2024-01-15T06:56:32;1.13;89.08
54540;SHT30;40438;52.992;18.604;2024-01-15T06:58:58;1.09;89.40
54540;SHT30;40438;52.992;18.604;2024-01-15T07:01:24;1.04;89.32
54540;SHT30;40438;52.992;18.604;2024-01-15T07:03:49;1.09;88.38
54540;SHT30;40438;52.992;18.604;2024-01-15T07:06:15;1.20;88.41
54540;SHT30;40438;52.992;18.604;2024-01-15T07:08:41;1.20;88.48
54540;SHT30;40438;52.992;18.604;2024-01-15T07:11:07;1.19;88.10
54540;SHT30;40438;52.992;18.604;2024-01-15T07:13:36;1.17;87.99
54540;SHT30;40438;52.992;18.604;2024-01-15T07:16:02;1.13;88.40
54540;SHT30;40438;52.992;18.604;2024-01-15T07:18:28;1.13;87.99
54540;SHT30;40438;52.992;18.604;2024-01-15T07:20:54;1.06;87.99
54540;SHT30;40438;52.992;18.604;2024-01-15T07:23:19;1.07;88.27
54540;SHT30;40438;52.992;18.604;2024-01-15T07:25:45;1.10;88.27
54540;SHT30;40438;52.992;18.604;2024-01-15T07:28:11;1.16;87.87
54540;SHT30;40438;52.992;18.604;2024-01-15T07:30:38;1.20;87.23
54540;SHT30;40438;52.992;18.604;2024-01-15T07:33:04;1.20;87.78
54540;SHT30;40438;52.992;18.604;2024-01-15T07:35:30;1.07;88.33
54540;SHT30;40438;52.992;18.604;2024-01-15T07:37:56;1.07;87.91
54540;SHT30;40438;52.992;18.604;2024-01-15T07:40:22;1.09;88.06
54540;SHT30;40438;52.992;18.604;2024-01-15T07:42:47;1.13;88.09
54540;SHT30;40438;52.992;18.604;2024-01-15T07:45:13;1.15;88.21
54540;SHT30;40438;52.992;18.604;2024-01-15T07:47:41;1.11;87.88
54540;SHT30;40438;52.992;18.604;2024-01-15T07:50:07;1.09;88.31
54540;SHT30;40438;52.992;18.604;2024-01-15T07:52:32;1.10;87.93
54540;SHT30;40438;52.992;18.604;2024-01-15T07:54:58;1.11;87.62
54540;SHT30;40438;52.992;18.604;2024-01-15T07:57:24;1.17;88.33
54540;SHT30;40438;52.992;18.604;2024-01-15T07:59:50;1.06;89.77
54540;SHT30;40438;52.992;18.604;2024-01-15T08:02:15;1.03;89.47
54540;SHT30;40438;52.992;18.604;2024-01-15T08:04:43;1.10;89.46
54540;SHT30;40438;52.992;18.604;2024-01-15T08:07:08;1.06;89.75
54540;SHT30;40438;52.992;18.604;2024-01-15T08:09:34;1.01;89.71
54540;SHT30;40438;52.992;18.604;2024-01-15T08:12:00;1.09;89.21
54540;SHT30;40438;52.992;18.604;2024-01-15T08:14:26;1.13;89.43
54540;SHT30;40438;52.992;18.604;2024-01-15T08:16:52;1.06;89.63
54540;SHT30;40438;52.992;18.604;2024-01-15T08:19:18;1.07;89.69
54540;SHT30;40438;52.992;18.604;2024-01-15T08:21:45;1.11;89.50
54540;SHT30;40438;52.992;18.604;2024-01-15T08:24:11;1.07;89.22
54540;SHT30;40438;52.992;18.604;2024-01-15T08:26:37;1.17;89.12
54540;SHT30;40438;52.992;18.604;2024-01-15T08:29:03;1.15;88.63
54540;SHT30;40438;52.992;18.604;2024-01-15T08:31:29;1.20;89.00
54540;SHT30;40438;52.992;18.604;2024-01-15T08:33:54;1.17;89.39
54540;SHT30;40438;52.992;18.604;2024-01-15T08:36:21;1.13;88.85
54540;SHT30;40438;52.992;18.604;2024-01-15T08:38:48;1.22;88.56
54540;SHT30;40438;52.992;18.604;2024-01-15T08:41:14;1.20;88.43
54540;SHT30;40438;52.992;18.604;2024-01-15T08:43:40;1.19;88.30
54540;SHT30;40438;52.992;18.604;2024-01-15T08:46:05;1.16;88.13
54540;SHT30;40438;52.992;18.604;2024-01-15T08:48:31;1.24;88.16
54540;SHT30;40438;52.992;18.604;2024-01-15T08:50:57;1.28;87.59
54540;SHT30;40438;52.992;18.604;2024-01-15T08:53:23;1.23;88.11
54540;SHT30;40438;52.992;18.604;2024-01-15T08:55:50;1.27;87.92
54540;SHT30;40438;52.992;18.604;2024-01-15T08:58:17;1.33;87.55
54540;SHT30;40438;52.992;18.604;2024-01-15T09:00:43;1.34;87.73
54540;SHT30;40438;52.992;18.604;2024-01-15T09:03:08;1.52;87.25
54540;SHT30;40438;52.992;18.604;2024-01-15T09:05:34;1.52;87.00
54540;SHT30;40438;52.992;18.604;2024-01-15T09:08:00;1.62;86.48
54540;SHT30;40438;52.992;18.604;2024-01-15T09:10:26;1.61;86.31
54540;SHT30;40438;52.992;18.604;2024-01-15T09:12:53;1.62;85.66
54540;SHT30;40438;52.992;18.604;2024-01-15T09:15:19;1.67;85.81
54540;SHT30;40438;52.992;18.604;2024-01-15T09:17:45;1.71;85.64
54540;SHT30;40438;52.992;18.604;2024-01-15T09:20:11;1.61;85.58
54540;SHT30;40438;52.992;18.604;2024-01-15T09:22:38;1.55;85.62
54540;SHT30;40438;52.992;18.604;2024-01-15T09:25:04;1.57;86.25
54540;SHT30;40438;52.992;18.604;2024-01-15T09:27:30;1.57;86.58
54540;SHT30;40438;52.992;18.604;2024-01-15T09:29:57;1.48;86.89
54540;SHT30;40438;52.992;18.604;2024-01-15T09:32:23;1.57;86.54
54540;SHT30;40438;52.992;18.604;2024-01-15T09:34:49;1.52;86.66
54540;SHT30;40438;52.992;18.604;2024-01-15T09:37:14;1.67;86.51
54540;SHT30;40438;52.992;18.604;2024-01-15T09:39:40;1.72;86.09
54540;SHT30;40438;52.992;18.604;2024-01-15T09:42:07;1.79;85.81
54540;SHT30;40438;52.992;18.604;2024-01-15T09:44:33;1.75;86.15
54540;SHT30;40438;52.992;18.604;2024-01-15T09:47:01;1.64;86.11
54540;SHT30;40438;52.992;18.604;2024-01-15T09:49:27;1.62;85.92
54540;SHT30;40438;52.992;18.604;2024-01-15T09:51:53;1.65;85.89
54540;SHT30;40438;52.992;18.604;2024-01-15T09:54:20;1.64;85.77
54540;SHT30;40438;52.992;18.604;2024-01-15T09:56:46;1.62;86.05
54540;SHT30;40438;52.992;18.604;2024-01-15T09:59:13;1.61;86.12
54540;SHT30;40438;52.992;18.604;2024-01-15T10:01:40;1.62;86.66
54540;SHT30;40438;52.992;18.604;2024-01-15T10:04:08;1.59;86.58
54540;SHT30;40438;52.992;18.604;2024-01-15T10:06:33;1.55;86.71
54540;SHT30;40438;52.992;18.604;2024-01-15T10:09:00;1.57;86.76
54540;SHT30;40438;52.992;18.604;2024-01-15T10:11:26;1.51;86.96
54540;SHT30;40438;52.992;18.604;2024-01-15T10:13:52;1.48;87.10
54540;SHT30;40438;52.992;18.604;2024-01-15T10:16:18;1.48;87.00
54540;SHT30;40438;52.992;18.604;2024-01-15T10:18:44;1.52;87.05
54540;SHT30;40438;52.992;18.604;2024-01-15T10:21:11;1.61;86.42
54540;SHT30;40438;52.992;18.604;2024-01-15T10:23:37;1.77;85.85
54540;SHT30;40438;52.992;18.604;2024-01-15T10:26:03;1.81;85.64
54540;SHT30;40438;52.992;18.604;2024-01-15T10:28:30;1.82;84.72
54540;SHT30;40438;52.992;18.604;2024-01-15T10:30:58;1.86;84.86
54540;SHT30;40438;52.992;18.604;2024-01-15T10:33:24;1.93;83.91
54540;SHT30;40438;52.992;18.604;2024-01-15T10:35:50;1.93;83.87
54540;SHT30;40438;52.992;18.604;2024-01-15T10:38:17;1.90;83.75
54540;SHT30;40438;52.992;18.604;2024-01-15T10:40:42;2.00;83.45
54540;SHT30;40438;52.992;18.604;2024-01-15T10:43:08;2.09;83.12
54540;SHT30;40438;52.992;18.604;2024-01-15T10:45:34;2.16;82.45
54540;SHT30;40438;52.992;18.604;2024-01-15T10:48:00;2.13;82.22
54540;SHT30;40438;52.992;18.604;2024-01-15T10:50:26;2.16;82.62
54540;SHT30;40438;52.992;18.604;2024-01-15T10:52:52;2.14;82.77
54540;SHT30;40438;52.992;18.604;2024-01-15T10:55:20;2.09;83.28
54540;SHT30;40438;52.992;18.604;2024-01-15T10:57:48;2.07;83.45
54540;SHT30;40438;52.992;18.604;2024-01-15T11:00:15;2.19;82.95
54540;SHT30;40438;52.992;18.604;2024-01-15T11:02:41;2.30;82.91
54540;SHT30;40438;52.992;18.604;2024-01-15T11:05:07;2.36;81.98
54540;SHT30;40438;52.992;18.604;2024-01-15T11:07:33;2.50;81.79
54540;SHT30;40438;52.992;18.604;2024-01-15T11:09:59;2.38;81.52
54540;SHT30;40438;52.992;18.604;2024-01-15T11:12:26;2.30;82.36
54540;SHT30;40438;52.992;18.604;2024-01-15T11:14:51;2.38;82.56
54540;SHT30;40438;52.992;18.604;2024-01-15T11:17:18;2.43;81.99
54540;SHT30;40438;52.992;18.604;2024-01-15T11:19:45;2.56;81.73
54540;SHT30;40438;52.992;18.604;2024-01-15T11:22:49;2.78;80.61
54540;SHT30;40438;52.992;18.604;2024-01-15T11:25:17;2.77;79.91
54540;SHT30;40438;52.992;18.604;2024-01-15T11:27:46;2.74;80.02
54540;SHT30;40438;52.992;18.604;2024-01-15T11:30:12;2.60;80.20
54540;SHT30;40438;52.992;18.604;2024-01-15T11:32:39;2.56;79.66
54540;SHT30;40438;52.992;18.604;2024-01-15T11:35:05;2.48;79.72
54540;SHT30;40438;52.992;18.604;2024-01-15T11:37:58;2.43;80.28
54540;SHT30;40438;52.992;18.604;2024-01-15T11:40:37;2.44;79.93
54540;SHT30;40438;52.992;18.604;2024-01-15T11:43:04;2.38;79.74
54540;SHT30;40438;52.992;18.604;2024-01-15T11:45:31;2.43;79.46
54540;SHT30;40438;52.992;18.604;2024-01-15T11:48:17;2.71;78.37
54540;SHT30;40438;52.992;18.604;2024-01-15T11:50:44;2.98;77.38
54540;SHT30;40438;52.992;18.604;2024-01-15T11:53:21;3.16;76.64
54540;SHT30;40438;52.992;18.604;2024-01-15T11:55:51;3.44;74.27
54540;SHT30;40438;52.992;18.604;2024-01-15T11:58:20;3.51;73.60
54540;SHT30;40438;52.992;18.604;2024-01-15T12:00:48;3.63;73.43
54540;SHT30;40438;52.992;18.604;2024-01-15T12:03:15;3.89;73.11
54540;SHT30;40438;52.992;18.604;2024-01-15T12:05:42;3.97;72.93
54540;SHT30;40438;52.992;18.604;2024-01-15T12:08:08;3.97;71.66
54540;SHT30;40438;52.992;18.604;2024-01-15T12:10:34;3.70;72.51
54540;SHT30;40438;52.992;18.604;2024-01-15T12:13:00;3.61;73.04
54540;SHT30;40438;52.992;18.604;2024-01-15T12:15:30;3.67;73.54
54540;SHT30;40438;52.992;18.604;2024-01-15T12:17:56;3.58;72.97
54540;SHT30;40438;52.992;18.604;2024-01-15T12:20:23;3.53;73.51
54540;SHT30;40438;52.992;18.604;2024-01-15T12:22:49;3.24;73.61
54540;SHT30;40438;52.992;18.604;2024-01-15T12:25:15;3.12;74.43
54540;SHT30;40438;52.992;18.604;2024-01-15T12:27:41;2.92;75.46
54540;SHT30;40438;52.992;18.604;2024-01-15T12:30:11;2.93;75.84
54540;SHT30;40438;52.992;18.604;2024-01-15T12:32:38;2.88;77.07
54540;SHT30;40438;52.992;18.604;2024-01-15T12:35:06;2.82;77.22
54540;SHT30;40438;52.992;18.604;2024-01-15T12:37:31;2.78;76.13
54540;SHT30;40438;52.992;18.604;2024-01-15T12:39:59;2.81;76.18
54540;SHT30;40438;52.992;18.604;2024-01-15T12:42:24;2.78;76.30
54540;SHT30;40438;52.992;18.604;2024-01-15T12:44:50;2.69;75.82
54540;SHT30;40438;52.992;18.604;2024-01-15T12:47:16;2.68;75.12
54540;SHT30;40438;52.992;18.604;2024-01-15T12:49:46;2.54;75.37
54540;SHT30;40438;52.992;18.604;2024-01-15T12:52:12;2.60;74.89
54540;SHT30;40438;52.992;18.604;2024-01-15T12:54:38;2.56;74.34
54540;SHT30;40438;52.992;18.604;2024-01-15T12:57:04;2.48;74.47
54540;SHT30;40438;52.992;18.604;2024-01-15T12:59:29;2.48;74.51
54540;SHT30;40438;52.992;18.604;2024-01-15T13:01:55;2.53;73.80
54540;SHT30;40438;52.992;18.604;2024-01-15T13:04:22;2.54;73.61
54540;SHT30;40438;52.992;18.604;2024-01-15T13:06:49;2.44;73.76
54540;SHT30;40438;52.992;18.604;2024-01-15T13:09:15;2.48;73.36
54540;SHT30;40438;52.992;18.604;2024-01-15T13:11:41;2.41;73.61
54540;SHT30;40438;52.992;18.604;2024-01-15T13:14:07;2.40;73.28
54540;SHT30;40438;52.992;18.604;2024-01-15T13:16:33;2.50;72.85
54540;SHT30;40438;52.992;18.604;2024-01-15T13:18:58;2.60;72.60
54540;SHT30;40438;52.992;18.604;2024-01-15T13:21:24;2.57;72.58
54540;SHT30;40438;52.992;18.604;2024-01-15T13:23:51;2.67;70.47
54540;SHT30;40438;52.992;18.604;2024-01-15T13:26:17;2.71;71.26
54540;SHT30;40438;52.992;18.604;2024-01-15T13:28:43;2.65;70.87
54540;SHT30;40438;52.992;18.604;2024-01-15T13:31:09;2.57;69.96
54540;SHT30;40438;52.992;18.604;2024-01-15T13:33:35;2.58;69.76
54540;SHT30;40438;52.992;18.604;2024-01-15T13:36:00;2.64;69.51
54540;SHT30;40438;52.992;18.604;2024-01-15T13:38:26;2.56;70.09
54540;SHT30;40438;52.992;18.604;2024-01-15T13:40:53;2.51;70.60
54540;SHT30;40438;52.992;18.604;2024-01-15T13:43:19;2.58;70.19
54540;SHT30;40438;52.992;18.604;2024-01-15T13:45:45;2.53;70.49
54540;SHT30;40438;52.992;18.604;2024-01-15T13:48:11;2.60;70.21
54540;SHT30;40438;52.992;18.604;2024-01-15T13:50:37;2.47;70.56
54540;SHT30;40438;52.992;18.604;2024-01-15T13:53:03;2.46;71.02
54540;SHT30;40438;52.992;18.604;2024-01-15T13:55:29;2.37;71.88
54540;SHT30;40438;52.992;18.604;2024-01-15T13:57:56;2.43;71.69
54540;SHT30;40438;52.992;18.604;2024-01-15T14:00:22;2.38;72.40
54540;SHT30;40438;52.992;18.604;2024-01-15T14:02:48;2.30;73.04
54540;SHT30;40438;52.992;18.604;2024-01-15T14:05:13;2.36;73.27
54540;SHT30;40438;52.992;18.604;2024-01-15T14:07:39;2.24;74.34
54540;SHT30;40438;52.992;18.604;2024-01-15T14:10:06;2.17;75.64
54540;SHT30;40438;52.992;18.604;2024-01-15T14:12:33;2.09;77.08
54540;SHT30;40438;52.992;18.604;2024-01-15T14:15:00;2.06;77.77
54540;SHT30;40438;52.992;18.604;2024-01-15T14:17:27;1.96;78.67
54540;SHT30;40438;52.992;18.604;2024-01-15T14:19:53;2.03;79.16
54540;SHT30;40438;52.992;18.604;2024-01-15T14:22:18;2.00;79.91
54540;SHT30;40438;52.992;18.604;2024-01-15T14:24:44;1.96;81.94
54540;SHT30;40438;52.992;18.604;2024-01-15T14:27:11;1.69;84.02
54540;SHT30;40438;52.992;18.604;2024-01-15T14:29:37;1.52;85.51
54540;SHT30;40438;52.992;18.604;2024-01-15T14:32:04;1.43;86.04
54540;SHT30;40438;52.992;18.604;2024-01-15T14:34:30;1.43;84.83
54540;SHT30;40438;52.992;18.604;2024-01-15T14:36:56;1.38;84.68
54540;SHT30;40438;52.992;18.604;2024-01-15T14:39:22;1.38;84.16
54540;SHT30;40438;52.992;18.604;2024-01-15T14:41:48;1.34;84.29
54540;SHT30;40438;52.992;18.604;2024-01-15T14:44:14;1.46;83.69
54540;SHT30;40438;52.992;18.604;2024-01-15T14:46:40;1.47;83.43
54540;SHT30;40438;52.992;18.604;2024-01-15T14:49:07;1.48;82.87
54540;SHT30;40438;52.992;18.604;2024-01-15T14:51:33;1.43;82.42
54540;SHT30;40438;52.992;18.604;2024-01-15T14:53:59;1.48;82.40
54540;SHT30;40438;52.992;18.604;2024-01-15T14:56:25;1.34;82.20
54540;SHT30;40438;52.992;18.604;2024-01-15T14:58:51;1.41;82.99
54540;SHT30;40438;52.992;18.604;2024-01-15T15:01:16;1.43;82.46
54540;SHT30;40438;52.992;18.604;2024-01-15T15:03:42;1.43;82.36
54540;SHT30;40438;52.992;18.604;2024-01-15T15:06:09;1.44;82.96
54540;SHT30;40438;52.992;18.604;2024-01-15T15:08:35;1.40;83.00
54540;SHT30;40438;52.992;18.604;2024-01-15T15:11:02;1.31;83.31
54540;SHT30;40438;52.992;18.604;2024-01-15T15:13:28;1.47;83.12
54540;SHT30;40438;52.992;18.604;2024-01-15T15:15:53;1.37;83.55
54540;SHT30;40438;52.992;18.604;2024-01-15T15:18:19;1.33;84.20
54540;SHT30;40438;52.992;18.604;2024-01-15T15:20:45;1.26;84.96
54540;SHT30;40438;52.992;18.604;2024-01-15T15:23:12;1.40;81.81
54540;SHT30;40438;52.992;18.604;2024-01-15T15:25:38;1.37;79.52